createdAt,value
2023-05-12T00:01:51.860Z,11.44
2023-05-12T00:04:53.700Z,11.42
2023-05-12T00:07:55.451Z,11.45
2023-05-12T00:10:57.278Z,11.49
2023-05-12T00:14:00.354Z,11.50
2023-05-12T00:17:03.319Z,11.53
2023-05-12T00:20:06.205Z,11.53
2023-05-12T00:23:08.096Z,11.59
2023-05-12T00:26:09.776Z,11.59
2023-05-12T00:29:12.733Z,11.55
2023-05-12T00:32:14.410Z,11.59
2023-05-12T00:35:16.128Z,11.55
2023-05-12T00:38:17.839Z,11.55
2023-05-12T00:41:20.035Z,11.56
2023-05-12T00:44:23.059Z,11.57
2023-05-12T00:47:24.704Z,11.52
2023-05-12T00:50:26.497Z,11.54
2023-05-12T00:53:37.541Z,11.49
2023-05-12T00:56:46.972Z,11.47
2023-05-12T00:59:49.960Z,11.48
2023-05-12T01:02:51.648Z,11.41
2023-05-12T01:06:00.682Z,11.42
2023-05-12T01:09:03.797Z,11.46
2023-05-12T01:12:05.829Z,11.45
2023-05-12T01:15:10.687Z,11.41
2023-05-12T01:18:14.813Z,11.45
2023-05-12T01:21:17.897Z,11.44
2023-05-12T01:24:24.315Z,11.37
2023-05-12T01:27:28.717Z,11.37
2023-05-12T01:30:32.200Z,11.35
2023-05-12T01:33:34.252Z,11.33
2023-05-12T01:36:35.859Z,11.29
2023-05-12T01:39:38.103Z,11.26
2023-05-12T01:42:42.370Z,11.30
2023-05-12T01:45:44.377Z,11.28
2023-05-12T01:48:46.223Z,11.26
2023-05-12T01:51:47.832Z,11.24
2023-05-12T01:54:49.469Z,11.27
2023-05-12T01:57:52.623Z,11.25
2023-05-12T02:00:54.251Z,11.29
2023-05-12T02:03:56.406Z,11.25
2023-05-12T02:06:58.356Z,11.24
2023-05-12T02:10:00.201Z,11.17
2023-05-12T02:13:03.188Z,11.23
2023-05-12T02:16:05.737Z,11.22
2023-05-12T02:19:07.519Z,11.24
2023-05-12T02:22:09.287Z,11.19
2023-05-12T02:25:11.219Z,11.19
2023-05-12T02:28:14.152Z,11.07
2023-05-12T02:31:16.004Z,11.16
2023-05-12T02:34:17.620Z,11.14
2023-05-12T02:37:19.493Z,11.15
2023-05-12T02:40:21.478Z,11.19
2023-05-12T02:43:24.769Z,11.15
2023-05-12T02:46:26.423Z,11.10
2023-05-12T02:49:28.105Z,11.10
2023-05-12T02:52:29.750Z,11.13
2023-05-12T02:55:31.633Z,11.14
2023-05-12T02:58:34.823Z,11.16
2023-05-12T03:01:36.715Z,11.12
2023-05-12T03:04:38.690Z,11.08
2023-05-12T03:07:40.549Z,11.08
2023-05-12T03:10:42.247Z,11.00
2023-05-12T03:13:45.268Z,10.99
2023-05-12T03:16:47.417Z,11.06
2023-05-12T03:19:49.670Z,11.02
2023-05-12T03:22:51.713Z,11.01
2023-05-12T03:25:53.568Z,11.02
2023-05-12T03:28:56.814Z,10.98
2023-05-12T03:31:58.670Z,11.02
2023-05-12T03:35:00.714Z,11.02
2023-05-12T03:38:02.434Z,11.02
2023-05-12T03:41:04.590Z,11.12
2023-05-12T03:44:07.646Z,11.10
2023-05-12T03:47:09.603Z,11.07
2023-05-12T03:50:11.266Z,11.04
2023-05-12T03:53:12.953Z,11.01
2023-05-12T03:56:14.661Z,11.04
2023-05-12T03:59:17.614Z,11.02
2023-05-12T04:02:19.302Z,11.08
2023-05-12T04:05:20.986Z,11.05
2023-05-12T04:08:22.589Z,11.09
2023-05-12T04:11:25.751Z,11.07
2023-05-12T04:14:39.114Z,11.11
2023-05-12T04:17:43.742Z,11.13
2023-05-12T04:20:45.416Z,11.09
2023-05-12T04:23:47.276Z,11.08
2023-05-12T04:26:49.154Z,11.07
2023-05-12T04:29:52.315Z,11.09
2023-05-12T04:32:54.271Z,11.14
2023-05-12T04:35:56.247Z,11.19
2023-05-12T04:38:58.359Z,11.20
2023-05-12T04:42:01.128Z,11.22
2023-05-12T04:45:04.729Z,11.27
2023-05-12T04:48:06.620Z,11.27
2023-05-12T04:51:08.688Z,11.25
2023-05-12T04:54:10.557Z,11.30
2023-05-12T04:57:12.364Z,11.24
2023-05-12T05:00:15.833Z,11.19
2023-05-12T05:03:17.552Z,11.19
2023-05-12T05:06:19.370Z,11.20
2023-05-12T05:09:21.406Z,11.20
2023-05-12T05:12:23.109Z,11.22
2023-05-12T05:15:26.180Z,11.18
2023-05-12T05:18:28.049Z,11.24
2023-05-12T05:21:29.846Z,11.26
2023-05-12T05:24:31.465Z,11.29
2023-05-12T05:27:33.293Z,11.27
2023-05-12T05:30:36.518Z,11.34
2023-05-12T05:33:38.348Z,11.37
2023-05-12T05:36:40.606Z,11.41
2023-05-12T05:39:42.274Z,11.47
2023-05-12T05:42:44.435Z,11.53
2023-05-12T05:45:47.650Z,11.56
2023-05-12T05:48:49.505Z,11.67
2023-05-12T05:51:51.080Z,11.78
2023-05-12T05:54:52.980Z,11.81
2023-05-12T05:57:54.682Z,11.88
2023-05-12T06:00:57.668Z,11.96
2023-05-12T06:03:59.560Z,11.95
2023-05-12T06:07:01.519Z,12.09
2023-05-12T06:10:03.254Z,12.20
2023-05-12T06:13:04.952Z,12.17
2023-05-12T06:16:07.967Z,12.24
2023-05-12T06:19:09.811Z,12.28
2023-05-12T06:22:11.632Z,12.33
2023-05-12T06:25:13.323Z,12.47
2023-05-12T06:28:15.112Z,12.47
2023-05-12T06:31:20.760Z,12.54
2023-05-12T06:34:22.705Z,12.69
2023-05-12T06:37:24.394Z,12.78
2023-05-12T06:40:26.231Z,12.84
2023-05-12T06:43:27.929Z,12.83
2023-05-12T06:46:30.955Z,12.91
2023-05-12T06:49:32.679Z,12.85
2023-05-12T06:52:34.400Z,12.97
2023-05-12T06:55:36.475Z,13.01
2023-05-12T06:58:38.534Z,13.00
2023-05-12T07:01:41.719Z,13.08
2023-05-12T07:04:43.395Z,13.15
2023-05-12T07:07:45.112Z,13.20
2023-05-12T07:10:47.557Z,13.22
2023-05-12T07:13:50.673Z,13.30
2023-05-12T07:16:54.095Z,13.28
2023-05-12T07:19:55.528Z,13.28
2023-05-12T07:22:57.330Z,13.23
2023-05-12T07:25:59.023Z,13.24
2023-05-12T07:29:00.800Z,13.29
2023-05-12T07:32:04.573Z,13.39
2023-05-12T07:35:06.731Z,13.41
2023-05-12T07:38:08.460Z,13.53
2023-05-12T07:41:10.129Z,13.52
2023-05-12T07:44:11.880Z,13.52
2023-05-12T07:47:15.006Z,13.54
2023-05-12T07:50:17.257Z,13.51
2023-05-12T07:53:18.888Z,13.65
2023-05-12T07:56:20.624Z,13.60
2023-05-12T07:59:22.476Z,13.76
2023-05-12T08:02:25.574Z,13.92
2023-05-12T08:05:27.416Z,13.94
2023-05-12T08:08:29.005Z,13.88
2023-05-12T08:11:30.683Z,13.86
2023-05-12T08:14:32.302Z,14.02
2023-05-12T08:17:35.704Z,14.08
2023-05-12T08:20:37.209Z,14.19
2023-05-12T08:23:39.126Z,14.18
2023-05-12T08:26:41.059Z,14.01
2023-05-12T08:29:42.741Z,13.79
2023-05-12T08:32:45.921Z,13.64
2023-05-12T08:35:47.604Z,13.69
2023-05-12T08:38:49.412Z,13.61
2023-05-12T08:41:55.922Z,13.47
2023-05-12T08:44:59.953Z,13.44
2023-05-12T08:48:04.597Z,13.28
2023-05-12T08:51:07.698Z,13.14
2023-05-12T08:54:10.761Z,12.97
2023-05-12T08:57:12.650Z,12.78
2023-05-12T09:00:15.959Z,12.64
2023-05-12T09:03:20.219Z,12.64
2023-05-12T09:06:22.059Z,12.58
2023-05-12T09:09:27.153Z,12.54
2023-05-12T09:12:34.749Z,12.52
2023-05-12T09:15:41.243Z,12.55
2023-05-12T09:18:50.566Z,12.52
2023-05-12T09:21:52.841Z,12.52
2023-05-12T09:24:54.567Z,12.46
2023-05-12T09:27:56.249Z,12.31
2023-05-12T09:30:57.983Z,12.23
2023-05-12T09:34:01.074Z,12.11
2023-05-12T09:37:05.342Z,12.09
2023-05-12T09:40:08.290Z,12.10
2023-05-12T09:43:12.486Z,12.10
2023-05-12T09:46:16.069Z,12.24
2023-05-12T09:49:24.281Z,12.24
2023-05-12T09:52:26.243Z,12.20
2023-05-12T09:55:27.897Z,12.12
2023-05-12T09:58:29.851Z,12.16
2023-05-12T10:01:31.798Z,12.03
2023-05-12T10:04:45.763Z,12.09
2023-05-12T10:07:50.646Z,12.08
2023-05-12T10:10:54.958Z,12.16
2023-05-12T10:13:57.698Z,12.19
2023-05-12T10:17:00.207Z,12.30
2023-05-12T10:20:03.957Z,12.34
2023-05-12T10:23:06.729Z,12.37
2023-05-12T10:26:09.972Z,12.49
2023-05-12T10:29:15.368Z,12.61
2023-05-12T10:32:17.280Z,12.75
2023-05-12T10:35:20.559Z,12.96
2023-05-12T10:38:22.245Z,13.20
2023-05-12T10:41:30.889Z,13.32
2023-05-12T10:44:32.657Z,13.34
2023-05-12T10:47:37.378Z,13.36
2023-05-12T10:50:53.265Z,13.38
2023-05-12T10:53:57.930Z,13.53
2023-05-12T10:57:00.156Z,13.55
2023-05-12T11:00:03.585Z,13.48
2023-05-12T11:03:13.208Z,13.58
2023-05-12T11:06:19.486Z,13.61
2023-05-12T11:09:21.877Z,13.54
2023-05-12T11:12:24.456Z,13.66
2023-05-12T11:15:26.648Z,13.66
2023-05-12T11:18:28.518Z,13.64
2023-05-12T11:21:32.656Z,13.64
2023-05-12T11:24:34.806Z,13.59
2023-05-12T11:27:36.584Z,13.66
2023-05-12T11:30:47.959Z,13.65
2023-05-12T11:33:56.076Z,13.65
2023-05-12T11:37:07.826Z,13.75
2023-05-12T11:40:17.126Z,13.67
2023-05-12T11:43:21.137Z,13.47
2023-05-12T11:46:26.729Z,13.43
2023-05-12T11:49:29.687Z,13.42
2023-05-12T11:52:33.052Z,13.21
2023-05-12T11:55:34.652Z,13.18
2023-05-12T11:58:36.308Z,13.04
2023-05-12T12:01:44.500Z,12.93
2023-05-12T12:04:46.142Z,12.96
2023-05-12T12:07:49.245Z,12.82
2023-05-12T12:10:51.045Z,12.75
2023-05-12T12:13:54.023Z,12.70
2023-05-12T12:16:56.259Z,12.69
2023-05-12T12:19:58.060Z,12.71
2023-05-12T12:23:01.132Z,12.69
2023-05-12T12:26:02.742Z,12.69
2023-05-12T12:29:13.395Z,12.76
2023-05-12T12:32:19.351Z,12.74
2023-05-12T12:35:21.772Z,12.71
2023-05-12T12:38:25.159Z,12.89
2023-05-12T12:41:26.897Z,13.10
2023-05-12T12:44:28.648Z,13.31
2023-05-12T12:47:30.648Z,13.39
2023-05-12T12:50:32.457Z,13.42
2023-05-12T12:53:35.482Z,13.33
2023-05-12T12:56:37.314Z,13.27
2023-05-12T12:59:38.903Z,13.19
2023-05-12T13:02:40.679Z,13.16
2023-05-12T13:05:42.419Z,13.20
2023-05-12T13:08:45.458Z,13.04
2023-05-12T13:11:47.156Z,12.96
2023-05-12T13:14:49.174Z,12.88
2023-05-12T13:17:51.249Z,12.77
2023-05-12T13:20:53.010Z,12.83
2023-05-12T13:23:56.071Z,12.84
2023-05-12T13:26:58.236Z,12.88
2023-05-12T13:30:00.385Z,12.85
2023-05-12T13:33:04.404Z,12.78
2023-05-12T13:36:08.042Z,12.69
2023-05-12T13:39:11.219Z,12.56
2023-05-12T13:42:13.054Z,12.55
2023-05-12T13:45:14.804Z,12.54
2023-05-12T13:48:16.580Z,12.43
2023-05-12T13:51:18.880Z,12.39
2023-05-12T13:54:21.930Z,12.31
2023-05-12T13:57:24.092Z,12.28
2023-05-12T14:00:25.950Z,12.27
2023-05-12T14:03:27.936Z,12.17
2023-05-12T14:06:29.859Z,12.04
2023-05-12T14:09:33.167Z,11.99
2023-05-12T14:12:35.008Z,11.93
2023-05-12T14:15:48.080Z,11.95
2023-05-12T14:18:55.725Z,11.89
2023-05-12T14:21:57.601Z,11.96
2023-05-12T14:25:00.678Z,11.90
2023-05-12T14:28:04.294Z,11.85
2023-05-12T14:31:06.177Z,11.81
2023-05-12T14:34:08.067Z,11.77
2023-05-12T14:37:09.903Z,11.76
2023-05-12T14:40:14.181Z,11.79
2023-05-12T14:43:15.961Z,11.74
2023-05-12T14:46:18.015Z,11.84
2023-05-12T14:49:19.877Z,11.83
2023-05-12T14:52:21.700Z,11.81
2023-05-12T14:55:25.080Z,11.84
2023-05-12T14:58:26.765Z,11.75
2023-05-12T15:01:28.438Z,11.71
2023-05-12T15:04:30.095Z,11.65
2023-05-12T15:07:32.224Z,11.59
2023-05-12T15:10:35.278Z,11.45
2023-05-12T15:13:37.168Z,11.45
2023-05-12T15:16:38.844Z,11.40
2023-05-12T15:19:40.739Z,11.42
2023-05-12T15:22:42.663Z,11.35
2023-05-12T15:25:45.667Z,11.34
2023-05-12T15:28:47.501Z,11.28
2023-05-12T15:31:49.316Z,11.24
2023-05-12T15:34:51.162Z,11.43
2023-05-12T15:37:52.848Z,11.42
2023-05-12T15:40:56.070Z,11.36
2023-05-12T15:43:57.895Z,11.37
2023-05-12T15:46:59.616Z,11.32
2023-05-12T15:50:01.354Z,11.33
2023-05-12T15:53:03.548Z,11.34
2023-05-12T15:56:07.523Z,11.34
2023-05-12T15:59:09.782Z,11.34
2023-05-12T16:02:11.687Z,11.31
2023-05-12T16:05:13.846Z,11.34
2023-05-12T16:08:15.844Z,11.31
2023-05-12T16:11:19.020Z,11.30
2023-05-12T16:14:20.764Z,11.28
2023-05-12T16:17:22.458Z,11.32
2023-05-12T16:20:24.214Z,11.37
2023-05-12T16:23:26.219Z,11.44
2023-05-12T16:26:29.210Z,11.38
2023-05-12T16:29:31.028Z,11.45
2023-05-12T16:32:32.919Z,11.44
2023-05-12T16:35:34.869Z,11.44
2023-05-12T16:38:36.616Z,11.44
2023-05-12T16:41:39.949Z,11.41
2023-05-12T16:44:41.778Z,11.42
2023-05-12T16:47:46.660Z,11.41
2023-05-12T16:50:48.682Z,11.34
2023-05-12T16:53:50.652Z,11.37
2023-05-12T16:56:53.802Z,11.40
2023-05-12T16:59:55.763Z,11.33
2023-05-12T17:02:57.794Z,11.31
2023-05-12T17:05:59.587Z,11.26
2023-05-12T17:09:01.396Z,11.28
2023-05-12T17:12:05.239Z,11.21
2023-05-12T17:15:08.629Z,11.14
2023-05-12T17:18:10.481Z,11.16
2023-05-12T17:21:12.258Z,11.09
2023-05-12T17:24:13.968Z,11.05
2023-05-12T17:27:17.045Z,11.04
2023-05-12T17:30:19.001Z,11.03
2023-05-12T17:33:20.629Z,11.03
2023-05-12T17:36:22.243Z,10.98
2023-05-12T17:39:23.915Z,11.00
2023-05-12T17:42:26.922Z,10.95
2023-05-12T17:45:28.700Z,10.90
2023-05-12T17:48:33.625Z,10.90
2023-05-12T17:51:35.363Z,10.89
2023-05-12T17:54:37.289Z,10.86
2023-05-12T17:57:40.346Z,10.86
2023-05-12T18:00:42.129Z,10.82
2023-05-12T18:03:43.934Z,10.82
2023-05-12T18:06:45.567Z,10.83
2023-05-12T18:09:47.473Z,10.80
2023-05-12T18:12:51.260Z,10.76
2023-05-12T18:15:53.189Z,10.73
2023-05-12T18:18:55.127Z,10.71
2023-05-12T18:21:57.068Z,10.71
2023-05-12T18:24:58.643Z,10.73
2023-05-12T18:28:01.669Z,10.78
2023-05-12T18:31:15.031Z,10.83
2023-05-12T18:34:18.139Z,10.84
2023-05-12T18:37:20.042Z,10.82
2023-05-12T18:40:21.766Z,10.84
2023-05-12T18:43:24.896Z,10.86
2023-05-12T18:46:27.031Z,10.84
2023-05-12T18:49:28.877Z,10.84
2023-05-12T18:52:30.617Z,10.82
2023-05-12T18:55:32.298Z,10.80
2023-05-12T18:58:35.360Z,10.82
2023-05-12T19:01:37.361Z,10.82
2023-05-12T19:04:39.282Z,10.75
2023-05-12T19:07:41.243Z,10.79
2023-05-12T19:10:43.002Z,10.78
2023-05-12T19:13:46.593Z,10.79
2023-05-12T19:16:48.520Z,10.80
2023-05-12T19:19:50.701Z,10.79
2023-05-12T19:22:52.715Z,10.82
2023-05-12T19:25:54.388Z,10.82
2023-05-12T19:28:57.362Z,10.87
2023-05-12T19:31:59.143Z,10.77
2023-05-12T19:35:01.027Z,10.86
2023-05-12T19:38:03.031Z,10.88
2023-05-12T19:41:04.979Z,10.89
2023-05-12T19:44:08.141Z,10.87
2023-05-12T19:47:09.790Z,10.85
2023-05-12T19:50:11.538Z,10.89
2023-05-12T19:53:13.293Z,10.92
2023-05-12T19:56:15.038Z,10.89
2023-05-12T19:59:18.082Z,10.87
2023-05-12T20:02:19.688Z,10.84
2023-05-12T20:05:21.760Z,10.83
2023-05-12T20:08:23.515Z,10.86
2023-05-12T20:11:25.465Z,10.86
2023-05-12T20:14:28.529Z,10.91
2023-05-12T20:17:30.191Z,10.90
2023-05-12T20:20:32.017Z,10.85
2023-05-12T20:23:33.705Z,10.83
2023-05-12T20:26:35.454Z,10.90
2023-05-12T20:29:38.543Z,10.88
2023-05-12T20:32:40.668Z,10.91
2023-05-12T20:35:42.419Z,10.86
2023-05-12T20:38:44.152Z,10.88
2023-05-12T20:41:45.884Z,10.86
2023-05-12T20:44:49.077Z,10.87
2023-05-12T20:47:51.038Z,10.88
2023-05-12T20:50:53.277Z,10.92
2023-05-12T20:53:55.531Z,10.86
2023-05-12T20:56:57.215Z,10.86
2023-05-12T21:00:00.154Z,10.87
2023-05-12T21:03:02.122Z,10.87
2023-05-12T21:06:05.251Z,10.84
2023-05-12T21:09:06.932Z,10.81
2023-05-12T21:12:09.084Z,10.82
2023-05-12T21:15:12.217Z,10.83
2023-05-12T21:18:13.859Z,10.78
2023-05-12T21:21:15.623Z,10.86
2023-05-12T21:24:17.324Z,10.80
2023-05-12T21:27:19.234Z,10.84
2023-05-12T21:30:22.701Z,10.89
2023-05-12T21:33:24.562Z,10.84
2023-05-12T21:36:26.430Z,10.82
2023-05-12T21:39:28.097Z,10.86
2023-05-12T21:42:30.080Z,10.84
2023-05-12T21:45:33.125Z,10.84
2023-05-12T21:48:34.904Z,10.80
2023-05-12T21:51:36.546Z,10.78
2023-05-12T21:54:38.285Z,10.81
2023-05-12T21:57:39.974Z,10.80
2023-05-12T22:00:43.104Z,10.81
2023-05-12T22:03:44.932Z,10.79
2023-05-12T22:06:46.622Z,10.86
2023-05-12T22:09:48.285Z,10.86
2023-05-12T22:12:49.959Z,10.83
2023-05-12T22:15:52.932Z,10.83
2023-05-12T22:18:55.002Z,10.83
2023-05-12T22:21:56.987Z,10.77
2023-05-12T22:24:58.612Z,10.80
2023-05-12T22:28:00.466Z,10.77
2023-05-12T22:31:03.638Z,10.75
2023-05-12T22:34:05.545Z,10.77
2023-05-12T22:37:07.265Z,10.80
2023-05-12T22:40:09.822Z,10.76
2023-05-12T22:43:11.685Z,10.71
2023-05-12T22:46:14.986Z,10.70
2023-05-12T22:49:16.930Z,10.68
2023-05-12T22:52:19.031Z,10.69
2023-05-12T22:55:20.705Z,10.67
2023-05-12T22:58:22.607Z,10.61
2023-05-12T23:01:25.680Z,10.54
2023-05-12T23:04:27.461Z,10.55
2023-05-12T23:07:29.164Z,10.57
2023-05-12T23:10:31.070Z,10.56
2023-05-12T23:13:32.661Z,10.52
2023-05-12T23:16:35.668Z,10.51
2023-05-12T23:19:37.536Z,10.54
2023-05-12T23:22:39.189Z,10.50
2023-05-12T23:25:41.003Z,10.47
2023-05-12T23:28:42.930Z,10.48
2023-05-12T23:31:45.960Z,10.45
2023-05-12T23:34:47.693Z,10.44
2023-05-12T23:37:49.351Z,10.39
2023-05-12T23:40:50.962Z,10.42
2023-05-12T23:43:52.587Z,10.37
2023-05-12T23:46:55.527Z,10.32
2023-05-12T23:49:57.201Z,10.30
2023-05-12T23:52:58.837Z,10.35
2023-05-12T23:56:01.299Z,10.33
2023-05-12T23:59:02.964Z,10.29
